createdAt,value
2023-12-10T00:00:45.005Z,1.40
2023-12-10T00:03:12.804Z,1.48
2023-12-10T00:05:40.284Z,1.27
2023-12-10T00:08:10.204Z,1.80
2023-12-10T00:10:37.926Z,1.70
2023-12-10T00:13:05.682Z,1.83
2023-12-10T00:15:33.263Z,1.45
2023-12-10T00:18:01.167Z,1.08
2023-12-10T00:20:28.802Z,1.77
2023-12-10T00:22:57.978Z,1.60
2023-12-10T00:25:27.583Z,3.47
2023-12-10T00:27:55.454Z,1.48
2023-12-10T00:30:23.114Z,1.10
2023-12-10T00:32:50.707Z,2.05
2023-12-10T00:35:18.291Z,2.05
2023-12-10T00:37:45.881Z,1.58
2023-12-10T00:40:15.948Z,1.52
2023-12-10T00:42:44.491Z,1.30
2023-12-10T00:45:12.172Z,2.10
2023-12-10T00:47:42.545Z,1.38
2023-12-10T00:50:10.436Z,1.50
2023-12-10T00:52:38.486Z,2.22
2023-12-10T00:55:06.056Z,4.22
2023-12-10T00:57:35.543Z,3.28
2023-12-10T01:00:05.983Z,2.72
2023-12-10T01:02:34.850Z,1.60
2023-12-10T01:05:02.695Z,2.35
2023-12-10T01:07:30.323Z,1.98
2023-12-10T01:09:57.972Z,1.67
2023-12-10T01:12:25.622Z,3.38
2023-12-10T01:14:53.296Z,2.22
2023-12-10T01:17:21.109Z,2.25
2023-12-10T01:19:49.511Z,2.35
2023-12-10T01:22:17.348Z,2.00
2023-12-10T01:24:47.251Z,2.78
2023-12-10T01:27:15.270Z,1.63
2023-12-10T01:29:42.747Z,1.73
2023-12-10T01:32:11.756Z,1.73
2023-12-10T01:34:39.667Z,2.45
2023-12-10T01:37:07.244Z,2.33
2023-12-10T01:39:34.806Z,2.10
2023-12-10T01:42:02.554Z,2.45
2023-12-10T01:44:31.717Z,1.77
2023-12-10T01:46:59.953Z,2.20
2023-12-10T01:49:30.282Z,1.98
2023-12-10T01:51:58.138Z,3.33
2023-12-10T01:54:26.352Z,3.05
2023-12-10T01:57:05.880Z,1.38
2023-12-10T01:59:37.719Z,2.60
2023-12-10T02:02:05.800Z,1.80
2023-12-10T02:04:33.443Z,1.65
2023-12-10T02:07:01.282Z,2.33
2023-12-10T02:09:28.950Z,2.78
2023-12-10T02:11:57.877Z,2.08
2023-12-10T02:14:25.306Z,2.22
2023-12-10T02:16:53.028Z,1.85
2023-12-10T02:19:20.582Z,2.75
2023-12-10T02:21:54.803Z,1.45
2023-12-10T02:24:29.739Z,2.28
2023-12-10T02:26:57.486Z,3.15
2023-12-10T02:29:25.082Z,2.88
2023-12-10T02:31:57.275Z,2.78
2023-12-10T02:34:26.238Z,1.77
2023-12-10T02:36:56.035Z,2.80
2023-12-10T02:39:23.686Z,1.77
2023-12-10T02:41:51.295Z,2.33
2023-12-10T02:59:58.306Z,1.50
2023-12-10T03:23:32.991Z,1.95
2023-12-10T03:27:10.680Z,1.40
2023-12-10T03:31:14.160Z,1.90
2023-12-10T03:34:24.744Z,1.85
2023-12-10T03:41:23.415Z,1.67
2023-12-10T03:49:26.353Z,2.42
2023-12-10T03:56:12.521Z,1.77
2023-12-10T04:12:19.541Z,1.23
2023-12-10T04:37:44.784Z,3.00
2023-12-10T04:41:13.733Z,1.60
2023-12-10T04:52:58.236Z,1.48
2023-12-10T04:56:45.612Z,1.60
2023-12-10T05:00:10.277Z,1.75
2023-12-10T05:18:40.459Z,1.35
2023-12-10T05:21:08.075Z,1.73
2023-12-10T05:23:35.760Z,1.23
2023-12-10T05:26:03.218Z,1.33
2023-12-10T05:28:30.846Z,1.13
2023-12-10T05:30:58.284Z,1.73
2023-12-10T05:33:26.186Z,1.17
2023-12-10T05:35:53.659Z,1.90
2023-12-10T05:38:21.329Z,1.35
2023-12-10T05:40:49.081Z,1.95
2023-12-10T05:43:16.966Z,1.50
2023-12-10T05:45:44.556Z,1.65
2023-12-10T05:48:12.693Z,1.52
2023-12-10T05:50:40.377Z,1.67
2023-12-10T05:53:08.020Z,2.03
2023-12-10T05:55:35.569Z,1.45
2023-12-10T05:58:03.194Z,1.05
2023-12-10T06:00:32.822Z,2.78
2023-12-10T06:03:00.496Z,3.60
2023-12-10T06:05:32.566Z,4.32
2023-12-10T06:08:00.315Z,2.28
2023-12-10T06:10:29.093Z,2.53
2023-12-10T06:12:56.830Z,1.88
2023-12-10T06:15:24.455Z,2.65
2023-12-10T06:17:52.315Z,2.58
2023-12-10T06:20:22.225Z,3.72
2023-12-10T06:22:50.050Z,2.28
2023-12-10T06:25:19.705Z,3.40
2023-12-10T06:27:50.071Z,1.92
2023-12-10T06:30:20.654Z,1.83
2023-12-10T06:32:49.797Z,1.65
2023-12-10T06:35:17.521Z,1.38
2023-12-10T06:37:50.407Z,2.25
2023-12-10T06:40:20.341Z,2.17
2023-12-10T06:42:48.040Z,3.13
2023-12-10T06:45:15.651Z,2.35
2023-12-10T06:47:43.738Z,3.10
2023-12-10T06:50:11.338Z,2.20
2023-12-10T06:52:41.615Z,1.92
2023-12-10T06:55:10.458Z,1.50
2023-12-10T06:57:38.194Z,1.92
2023-12-10T07:00:07.143Z,1.80
2023-12-10T07:02:36.751Z,1.80
2023-12-10T07:05:04.888Z,2.35
2023-12-10T07:07:33.149Z,1.90
2023-12-10T07:10:00.766Z,1.20
2023-12-10T07:12:28.803Z,2.05
2023-12-10T07:14:56.324Z,2.40
2023-12-10T07:17:24.202Z,3.00
2023-12-10T07:19:51.811Z,1.83
2023-12-10T07:22:22.549Z,1.55
2023-12-10T07:24:50.286Z,1.70
2023-12-10T07:27:17.887Z,1.10
2023-12-10T07:29:46.670Z,3.50
2023-12-10T07:32:16.514Z,3.22
2023-12-10T07:34:44.370Z,5.53
2023-12-10T07:37:12.123Z,2.65
2023-12-10T07:39:44.909Z,6.78
2023-12-10T07:42:12.568Z,5.22
2023-12-10T07:44:42.643Z,5.45
2023-12-10T07:47:12.978Z,5.07
2023-12-10T07:49:41.455Z,5.63
2023-12-10T07:52:09.181Z,3.83
2023-12-10T07:54:39.210Z,3.42
2023-12-10T07:57:06.863Z,4.28
2023-12-10T07:59:34.498Z,3.72
2023-12-10T08:02:02.316Z,3.17
2023-12-10T08:04:30.617Z,2.22
2023-12-10T08:06:59.968Z,3.03
2023-12-10T08:09:36.338Z,4.10
2023-12-10T08:12:15.829Z,2.03
2023-12-10T08:14:45.964Z,4.82
2023-12-10T08:17:13.749Z,3.30
2023-12-10T08:19:41.625Z,3.97
2023-12-10T08:22:09.642Z,5.53
2023-12-10T08:24:37.253Z,6.50
2023-12-10T08:27:04.875Z,2.85
2023-12-10T08:29:32.388Z,2.35
2023-12-10T08:32:00.481Z,4.65
2023-12-10T08:34:28.678Z,2.88
2023-12-10T08:36:56.703Z,6.28
2023-12-10T08:39:27.098Z,5.88
2023-12-10T08:41:57.187Z,6.72
2023-12-10T08:44:26.958Z,3.80
2023-12-10T08:46:54.874Z,3.70
2023-12-10T08:49:22.757Z,7.03
2023-12-10T08:51:51.485Z,4.75
2023-12-10T08:54:20.539Z,5.93
2023-12-10T08:56:54.095Z,5.00
2023-12-10T08:59:22.314Z,3.65
2023-12-10T09:01:50.167Z,5.88
2023-12-10T09:04:17.685Z,4.97
2023-12-10T09:06:46.488Z,4.30
2023-12-10T09:09:13.860Z,4.53
2023-12-10T09:11:42.550Z,5.72
2023-12-10T09:14:12.135Z,4.30
2023-12-10T09:16:39.912Z,3.80
2023-12-10T09:19:07.538Z,3.25
2023-12-10T09:21:35.211Z,5.75
2023-12-10T09:24:02.685Z,4.57
2023-12-10T09:26:31.618Z,5.22
2023-12-10T09:28:59.130Z,5.13
2023-12-10T09:31:26.832Z,5.38
2023-12-10T09:33:54.314Z,5.05
2023-12-10T09:36:21.976Z,6.15
2023-12-10T09:38:51.763Z,5.22
2023-12-10T09:41:22.444Z,4.00
2023-12-10T09:43:52.229Z,3.58
2023-12-10T09:46:23.583Z,4.68
2023-12-10T09:48:52.738Z,4.78
2023-12-10T09:51:21.148Z,3.95
2023-12-10T09:53:49.379Z,4.07
2023-12-10T09:56:19.822Z,3.70
2023-12-10T09:58:47.270Z,5.00
2023-12-10T10:01:15.134Z,6.25
2023-12-10T10:03:45.799Z,6.00
2023-12-10T10:06:13.508Z,6.65
2023-12-10T10:08:41.265Z,6.70
2023-12-10T10:11:09.015Z,5.55
2023-12-10T10:13:36.701Z,5.97
2023-12-10T10:16:11.695Z,6.45
2023-12-10T10:18:43.174Z,4.60
2023-12-10T10:23:39.286Z,5.68
2023-12-10T10:26:07.249Z,4.65
2023-12-10T10:28:37.974Z,6.10
2023-12-10T10:31:05.727Z,3.97
2023-12-10T10:33:34.362Z,3.60
2023-12-10T10:36:05.625Z,5.63
2023-12-10T10:38:36.809Z,4.60
2023-12-10T10:41:04.790Z,4.38
2023-12-10T10:43:35.339Z,5.13
2023-12-10T10:46:08.259Z,4.15
2023-12-10T10:48:37.425Z,3.63
2023-12-10T10:51:09.236Z,5.25
2023-12-10T10:56:06.708Z,4.70
2023-12-10T10:58:37.605Z,4.45
2023-12-10T11:01:06.920Z,3.75
2023-12-10T11:03:35.802Z,4.53
2023-12-10T11:06:11.255Z,3.92
2023-12-10T11:08:56.852Z,4.78
2023-12-10T11:11:31.434Z,3.47
2023-12-10T11:14:00.143Z,3.72
2023-12-10T11:16:27.970Z,3.38
2023-12-10T11:18:59.068Z,3.47
2023-12-10T11:21:26.936Z,3.03
2023-12-10T11:23:56.675Z,3.60
2023-12-10T11:26:24.611Z,4.45
2023-12-10T11:28:52.376Z,3.10
2023-12-10T11:31:20.076Z,4.88
2023-12-10T11:33:50.822Z,5.28
2023-12-10T11:36:35.659Z,3.63
2023-12-10T11:39:15.920Z,3.92
2023-12-10T11:41:56.545Z,5.00
2023-12-10T11:44:31.995Z,6.50
2023-12-10T11:47:01.736Z,8.75
2023-12-10T11:49:30.681Z,7.20
2023-12-10T11:51:59.841Z,8.82
2023-12-10T11:54:27.518Z,8.05
2023-12-10T11:56:57.901Z,10.13
2023-12-10T11:59:26.347Z,6.18
2023-12-10T12:01:54.084Z,7.75
2023-12-10T12:04:25.249Z,7.28
2023-12-10T12:06:53.516Z,4.35
2023-12-10T12:09:26.971Z,7.05
2023-12-10T12:11:54.852Z,5.80
2023-12-10T12:14:22.627Z,7.50
2023-12-10T12:16:52.879Z,6.15
2023-12-10T12:19:32.478Z,5.15
2023-12-10T12:22:00.959Z,5.38
2023-12-10T12:24:29.016Z,12.30
2023-12-10T12:26:56.768Z,6.18
2023-12-10T12:29:24.367Z,4.90
2023-12-10T12:32:12.328Z,5.03
2023-12-10T12:34:41.877Z,5.57
2023-12-10T12:37:11.731Z,7.97
2023-12-10T12:39:39.393Z,5.60
2023-12-10T12:42:07.382Z,4.28
2023-12-10T12:44:35.360Z,5.43
2023-12-10T12:47:05.627Z,2.50
2023-12-10T12:49:36.871Z,4.63
2023-12-10T12:52:07.455Z,6.78
2023-12-10T12:54:38.721Z,5.55
2023-12-10T12:57:08.695Z,4.80
2023-12-10T12:59:39.429Z,6.55
2023-12-10T13:02:07.825Z,4.45
2023-12-10T13:04:36.999Z,3.45
2023-12-10T13:07:05.041Z,6.20
2023-12-10T13:09:32.725Z,4.28
2023-12-10T13:12:01.186Z,5.82
2023-12-10T13:14:29.354Z,4.25
2023-12-10T13:17:05.350Z,3.88
2023-12-10T13:19:33.709Z,6.53
2023-12-10T13:22:02.827Z,6.80
2023-12-10T13:24:30.677Z,5.47
2023-12-10T13:26:58.468Z,6.40
2023-12-10T13:29:28.398Z,5.28
2023-12-10T13:31:57.414Z,4.53
2023-12-10T13:34:25.119Z,5.65
2023-12-10T13:36:52.911Z,7.97
2023-12-10T13:39:21.770Z,5.53
2023-12-10T13:41:49.469Z,6.00
2023-12-10T13:44:17.170Z,7.40
2023-12-10T13:46:44.858Z,8.20
2023-12-10T13:49:13.979Z,8.27
2023-12-10T13:51:41.909Z,11.07
2023-12-10T13:54:11.792Z,9.48
2023-12-10T13:56:39.565Z,5.22
2023-12-10T13:59:09.348Z,7.65
2023-12-10T14:01:37.155Z,10.02
2023-12-10T14:04:05.037Z,16.77
2023-12-10T14:06:32.699Z,21.65
2023-12-10T14:09:00.377Z,11.27
2023-12-10T14:11:31.787Z,11.45
2023-12-10T14:14:05.714Z,10.57
2023-12-10T14:16:35.169Z,11.23
2023-12-10T14:19:05.305Z,9.85
2023-12-10T14:21:33.473Z,9.27
2023-12-10T14:24:01.104Z,11.88
2023-12-10T14:26:28.777Z,8.70
2023-12-10T14:28:59.873Z,6.75
2023-12-10T14:31:28.257Z,8.95
2023-12-10T14:33:58.126Z,5.32
2023-12-10T14:38:57.223Z,9.10
2023-12-10T14:41:25.989Z,8.23
2023-12-10T14:43:57.808Z,10.90
2023-12-10T14:46:29.815Z,8.40
2023-12-10T14:48:57.537Z,7.25
2023-12-10T14:51:25.463Z,5.72
2023-12-10T14:53:53.183Z,5.57
2023-12-10T14:56:21.043Z,8.65
2023-12-10T14:58:48.668Z,6.03
2023-12-10T15:01:16.446Z,7.88
2023-12-10T15:03:46.034Z,16.27
2023-12-10T15:06:14.618Z,4.70
2023-12-10T15:08:42.509Z,8.52
2023-12-10T15:11:10.778Z,5.93
2023-12-10T15:13:38.634Z,4.53
2023-12-10T15:16:09.575Z,6.00
2023-12-10T15:18:41.550Z,5.07
2023-12-10T15:21:09.213Z,4.65
2023-12-10T15:23:36.818Z,5.60
2023-12-10T15:26:05.577Z,4.25
2023-12-10T15:28:33.436Z,6.03
2023-12-10T15:31:07.793Z,4.20
2023-12-10T15:33:37.575Z,5.50
2023-12-10T15:36:12.327Z,6.38
2023-12-10T15:38:41.866Z,4.10
2023-12-10T15:41:12.128Z,4.45
2023-12-10T15:43:39.701Z,5.97
2023-12-10T15:46:07.253Z,6.50
2023-12-10T15:48:35.152Z,5.18
2023-12-10T15:51:03.346Z,3.50
2023-12-10T15:53:31.125Z,5.25
2023-12-10T15:55:58.968Z,2.15
2023-12-10T15:58:26.515Z,4.97
2023-12-10T16:00:55.682Z,3.90
2023-12-10T16:03:24.731Z,3.85
2023-12-10T16:05:55.487Z,3.88
2023-12-10T16:08:26.302Z,4.43
2023-12-10T16:10:54.027Z,2.75
2023-12-10T16:13:23.780Z,4.03
2023-12-10T16:15:52.742Z,2.47
2023-12-10T16:18:22.708Z,2.70
2023-12-10T16:20:50.603Z,4.45
2023-12-10T16:23:18.161Z,3.20
2023-12-10T16:25:48.459Z,2.95
2023-12-10T16:28:18.902Z,3.72
2023-12-10T16:30:46.694Z,4.35
2023-12-10T16:33:17.800Z,2.72
2023-12-10T16:35:45.408Z,4.10
2023-12-10T16:38:12.980Z,3.13
2023-12-10T16:40:40.562Z,3.95
2023-12-10T16:43:08.146Z,1.77
2023-12-10T16:45:39.993Z,4.53
2023-12-10T16:48:08.047Z,3.75
2023-12-10T16:50:36.792Z,2.25
2023-12-10T16:53:04.647Z,3.15
2023-12-10T16:55:32.258Z,3.15
2023-12-10T16:58:02.103Z,3.38
2023-12-10T17:00:35.565Z,3.15
2023-12-10T17:03:05.504Z,2.35
2023-12-10T17:05:33.021Z,3.28
2023-12-10T17:08:00.635Z,2.97
2023-12-10T17:10:28.425Z,4.47
2023-12-10T17:12:55.962Z,2.97
2023-12-10T17:15:27.194Z,4.45
2023-12-10T17:17:54.975Z,3.78
2023-12-10T17:20:28.350Z,3.63
2023-12-10T17:22:55.818Z,4.75
2023-12-10T17:25:26.538Z,2.00
2023-12-10T17:27:54.245Z,2.17
2023-12-10T17:30:21.867Z,2.10
2023-12-10T17:32:51.943Z,3.05
2023-12-10T17:35:19.662Z,3.25
2023-12-10T17:37:47.273Z,4.53
2023-12-10T17:40:14.997Z,3.33
2023-12-10T17:42:42.819Z,3.35
2023-12-10T17:45:11.038Z,2.70
2023-12-10T17:47:38.589Z,4.03
2023-12-10T17:50:07.239Z,4.68
2023-12-10T17:52:34.919Z,5.78
2023-12-10T17:55:03.144Z,4.15
2023-12-10T17:57:30.943Z,3.05
2023-12-10T18:00:01.064Z,4.93
2023-12-10T18:02:30.815Z,5.13
2023-12-10T18:04:58.565Z,2.15
2023-12-10T18:07:27.879Z,2.80
2023-12-10T18:09:56.182Z,2.30
2023-12-10T18:12:25.331Z,3.45
2023-12-10T18:14:54.219Z,3.22
2023-12-10T18:17:24.116Z,4.40
2023-12-10T18:19:54.550Z,5.88
2023-12-10T18:22:22.431Z,3.00
2023-12-10T18:24:50.195Z,2.92
2023-12-10T18:27:17.853Z,3.47
2023-12-10T18:29:47.779Z,3.00
2023-12-10T18:32:15.290Z,3.47
2023-12-10T18:34:48.356Z,3.20
2023-12-10T18:37:16.024Z,2.70
2023-12-10T18:39:46.351Z,2.38
2023-12-10T18:42:14.129Z,2.92
2023-12-10T18:44:42.223Z,3.80
2023-12-10T18:47:09.844Z,3.83
2023-12-10T18:49:37.642Z,2.97
2023-12-10T18:52:05.788Z,3.10
2023-12-10T18:54:33.709Z,3.22
2023-12-10T18:57:01.338Z,3.00
2023-12-10T18:59:31.812Z,4.40
2023-12-10T19:02:01.259Z,2.33
2023-12-10T19:04:30.175Z,2.30
2023-12-10T19:06:58.359Z,2.42
2023-12-10T19:09:35.417Z,2.53
2023-12-10T19:12:16.911Z,2.60
2023-12-10T19:14:49.043Z,2.92
2023-12-10T19:17:19.069Z,3.70
2023-12-10T19:19:55.603Z,4.03
2023-12-10T19:22:24.374Z,3.72
2023-12-10T19:24:52.224Z,4.72
2023-12-10T19:27:19.700Z,4.35
2023-12-10T19:29:49.824Z,3.25
2023-12-10T19:32:17.349Z,4.57
2023-12-10T19:34:45.148Z,3.65
2023-12-10T19:37:12.775Z,4.22
2023-12-10T19:39:40.672Z,2.30
2023-12-10T19:42:09.954Z,5.45
2023-12-10T19:44:37.555Z,3.33
2023-12-10T19:47:07.579Z,2.63
2023-12-10T19:49:36.009Z,2.70
2023-12-10T19:52:04.126Z,2.45
2023-12-10T19:54:32.240Z,2.83
2023-12-10T19:56:59.784Z,2.05
2023-12-10T19:59:28.202Z,2.80
2023-12-10T20:02:00.725Z,3.65
2023-12-10T20:04:28.439Z,2.40
2023-12-10T20:06:56.184Z,2.53
2023-12-10T20:09:23.848Z,3.63
2023-12-10T20:11:54.472Z,7.30
2023-12-10T20:14:25.252Z,5.28
2023-12-10T20:16:54.540Z,3.67
2023-12-10T20:19:22.779Z,5.93
2023-12-10T20:21:50.657Z,4.47
2023-12-10T20:24:27.694Z,6.90
2023-12-10T20:27:04.802Z,6.35
2023-12-10T20:29:32.568Z,7.97
2023-12-10T20:32:00.123Z,11.55
2023-12-10T20:34:32.935Z,6.55
2023-12-10T20:37:03.034Z,7.90
2023-12-10T20:39:30.720Z,6.72
2023-12-10T20:41:58.470Z,11.52
2023-12-10T20:44:28.279Z,8.55
2023-12-10T20:46:56.701Z,7.38
2023-12-10T20:49:25.441Z,7.75
2023-12-10T20:51:55.508Z,5.35
2023-12-10T20:54:23.517Z,5.07
2023-12-10T20:56:51.141Z,7.57
2023-12-10T20:59:30.064Z,7.28
2023-12-10T21:01:57.742Z,6.65
2023-12-10T21:04:25.405Z,9.25
2023-12-10T21:06:54.397Z,8.63
2023-12-10T21:09:22.138Z,6.40
2023-12-10T21:11:49.833Z,9.77
2023-12-10T21:14:17.681Z,5.68
2023-12-10T21:16:45.244Z,5.47
2023-12-10T21:19:13.198Z,9.93
2023-12-10T21:21:40.949Z,8.27
2023-12-10T21:24:09.681Z,9.23
2023-12-10T21:26:40.532Z,5.20
2023-12-10T21:29:08.537Z,8.65
2023-12-10T21:31:36.280Z,9.93
2023-12-10T21:34:05.172Z,8.57
2023-12-10T21:36:32.977Z,10.30
2023-12-10T21:39:00.746Z,8.50
2023-12-10T21:41:28.313Z,7.93
2023-12-10T21:43:56.023Z,5.63
2023-12-10T21:46:23.452Z,7.07
2023-12-10T21:48:53.580Z,6.70
2023-12-10T21:51:21.353Z,7.47
2023-12-10T21:53:48.952Z,5.80
2023-12-10T21:56:16.604Z,7.93
2023-12-10T21:58:44.221Z,6.45
2023-12-10T22:01:12.849Z,5.72
2023-12-10T22:03:40.643Z,7.03
2023-12-10T22:06:09.681Z,10.20
2023-12-10T22:08:37.462Z,7.00
2023-12-10T22:11:05.105Z,8.82
2023-12-10T22:13:35.444Z,6.05
2023-12-10T22:16:05.669Z,5.57
2023-12-10T22:18:35.819Z,5.85
2023-12-10T22:21:03.799Z,6.03
2023-12-10T22:23:34.053Z,6.07
2023-12-10T22:26:06.831Z,5.05
2023-12-10T22:28:34.762Z,8.23
2023-12-10T22:31:07.340Z,8.25
2023-12-10T22:33:35.388Z,4.20
2023-12-10T22:36:06.225Z,6.93
2023-12-10T22:38:40.235Z,4.80
2023-12-10T22:41:08.049Z,6.75
2023-12-10T22:43:36.276Z,6.50
2023-12-10T22:46:04.166Z,6.47
2023-12-10T22:48:32.080Z,3.45
2023-12-10T22:50:59.844Z,5.43
2023-12-10T22:53:27.367Z,3.03
2023-12-10T22:55:54.986Z,4.45
2023-12-10T22:58:27.564Z,4.85
2023-12-10T23:00:57.913Z,4.40
2023-12-10T23:03:28.144Z,4.88
2023-12-10T23:05:55.660Z,5.82
2023-12-10T23:08:25.850Z,4.28
2023-12-10T23:10:55.874Z,3.75
2023-12-10T23:13:23.661Z,4.00
2023-12-10T23:16:12.979Z,3.97
2023-12-10T23:18:40.994Z,5.93
2023-12-10T23:21:13.138Z,4.50
2023-12-10T23:23:40.952Z,5.78
2023-12-10T23:26:11.164Z,5.13
2023-12-10T23:28:41.679Z,4.28
2023-12-10T23:31:09.309Z,3.90
2023-12-10T23:33:37.682Z,4.25
2023-12-10T23:36:05.804Z,4.65
2023-12-10T23:38:33.476Z,3.65
2023-12-10T23:41:01.088Z,2.65
2023-12-10T23:43:29.107Z,3.70
2023-12-10T23:45:59.147Z,5.25
2023-12-10T23:48:26.914Z,2.80
2023-12-10T23:50:56.963Z,3.75
2023-12-10T23:53:27.760Z,3.20
2023-12-10T23:55:55.526Z,2.83
2023-12-10T23:58:23.495Z,4.47
